createdAt,value
2022-09-14T00:02:13.917Z,9.05
2022-09-14T00:05:01.264Z,10.82
2022-09-14T00:07:48.911Z,8.30
2022-09-14T00:10:41.204Z,10.02
2022-09-14T00:13:28.315Z,11.02
2022-09-14T00:16:16.684Z,10.75
2022-09-14T00:19:06.287Z,10.10
2022-09-14T00:21:54.236Z,12.00
2022-09-14T00:24:44.112Z,10.35
2022-09-14T00:27:34.837Z,10.32
2022-09-14T00:30:25.326Z,11.15
2022-09-14T00:33:13.127Z,8.73
2022-09-14T00:36:06.785Z,7.82
2022-09-14T00:38:57.025Z,7.40
2022-09-14T00:41:47.555Z,6.60
2022-09-14T00:44:55.714Z,9.73
2022-09-14T00:47:46.947Z,6.38
2022-09-14T00:50:36.921Z,8.07
2022-09-14T00:53:26.100Z,6.55
2022-09-14T00:56:16.797Z,6.40
2022-09-14T00:59:09.500Z,7.25
2022-09-14T01:01:58.809Z,6.72
2022-09-14T01:04:49.102Z,6.25
2022-09-14T01:07:47.433Z,6.13
2022-09-14T01:10:46.491Z,8.02
2022-09-14T01:13:43.568Z,6.07
2022-09-14T01:16:39.793Z,8.00
2022-09-14T01:19:36.373Z,6.30
2022-09-14T01:22:33.659Z,7.28
2022-09-14T01:25:30.440Z,10.23
2022-09-14T01:28:24.429Z,5.70
2022-09-14T01:31:18.599Z,6.30
2022-09-14T01:34:10.937Z,10.18
2022-09-14T01:37:03.800Z,8.13
2022-09-14T01:39:52.991Z,6.97
2022-09-14T01:42:42.319Z,8.82
2022-09-14T01:45:31.486Z,8.00
2022-09-14T01:48:21.223Z,6.25
2022-09-14T01:51:11.932Z,6.88
2022-09-14T01:54:04.671Z,6.47
2022-09-14T01:57:10.445Z,6.65
2022-09-14T02:00:01.155Z,7.68
2022-09-14T02:02:59.303Z,7.93
2022-09-14T02:06:04.709Z,9.20
2022-09-14T02:08:58.015Z,12.07
2022-09-14T02:12:05.909Z,8.32
2022-09-14T02:15:29.645Z,6.55
2022-09-14T02:18:45.997Z,8.27
2022-09-14T02:22:10.510Z,8.68
2022-09-14T02:25:17.032Z,8.10
2022-09-14T02:28:41.570Z,6.00
2022-09-14T02:31:50.647Z,5.70
2022-09-14T02:35:22.728Z,6.57
2022-09-14T02:38:26.114Z,11.70
2022-09-14T02:41:34.803Z,6.45
2022-09-14T02:44:33.823Z,6.43
2022-09-14T02:47:25.727Z,5.28
2022-09-14T02:50:18.836Z,6.35
2022-09-14T02:53:18.585Z,7.85
2022-09-14T02:56:10.919Z,7.10
2022-09-14T02:59:00.346Z,7.72
2022-09-14T03:01:47.813Z,9.48
2022-09-14T03:04:35.600Z,6.10
2022-09-14T03:07:23.231Z,9.38
2022-09-14T03:10:12.531Z,8.10
2022-09-14T03:13:02.454Z,6.05
2022-09-14T03:15:50.383Z,8.00
2022-09-14T03:18:38.536Z,9.00
2022-09-14T03:21:26.155Z,10.52
2022-09-14T03:24:14.151Z,8.23
2022-09-14T03:27:04.259Z,10.13
2022-09-14T03:29:51.584Z,8.95
2022-09-14T03:32:39.930Z,9.13
2022-09-14T03:35:27.755Z,9.00
2022-09-14T03:38:15.579Z,8.70
2022-09-14T03:41:03.538Z,7.75
2022-09-14T03:43:52.979Z,9.50
2022-09-14T03:46:40.757Z,11.25
2022-09-14T03:49:28.611Z,7.90
2022-09-14T03:52:16.238Z,10.25
2022-09-14T03:55:03.187Z,12.55
2022-09-14T03:57:51.247Z,9.80
2022-09-14T04:00:41.976Z,10.82
2022-09-14T04:03:29.484Z,14.00
2022-09-14T04:06:18.210Z,10.77
2022-09-14T04:09:06.043Z,11.25
2022-09-14T04:11:56.467Z,13.20
2022-09-14T04:14:44.135Z,11.93
2022-09-14T04:17:34.845Z,12.90
2022-09-14T04:20:22.571Z,11.57
2022-09-14T04:23:12.510Z,14.45
2022-09-14T04:26:28.205Z,13.20
2022-09-14T04:29:27.556Z,11.77
2022-09-14T04:33:10.514Z,11.95
2022-09-14T04:39:25.654Z,11.85
2022-09-14T04:42:12.624Z,15.25
2022-09-14T04:44:59.776Z,10.80
2022-09-14T04:47:46.977Z,10.70
2022-09-14T04:50:33.866Z,11.77
2022-09-14T04:53:22.632Z,13.77
2022-09-14T04:56:10.433Z,12.27
2022-09-14T04:58:59.924Z,14.88
2022-09-14T05:01:48.978Z,14.45
2022-09-14T05:04:36.590Z,13.65
2022-09-14T05:07:23.552Z,13.40
2022-09-14T05:10:11.974Z,17.25
2022-09-14T05:12:59.266Z,11.70
2022-09-14T05:15:47.037Z,13.68
2022-09-14T05:18:34.109Z,12.98
2022-09-14T05:21:22.326Z,12.98
2022-09-14T05:24:14.767Z,12.07
2022-09-14T05:27:03.802Z,14.18
2022-09-14T05:29:50.982Z,12.60
2022-09-14T05:32:38.617Z,11.88
2022-09-14T05:35:43.274Z,11.35
2022-09-14T05:38:41.740Z,11.18
2022-09-14T05:42:03.818Z,13.77
2022-09-14T05:44:57.255Z,13.50
2022-09-14T05:47:47.620Z,12.20
2022-09-14T05:50:35.259Z,16.33
2022-09-14T05:53:22.540Z,14.77
2022-09-14T05:56:10.948Z,11.48
2022-09-14T05:58:58.317Z,11.25
2022-09-14T06:02:01.843Z,11.00
2022-09-14T06:08:31.745Z,12.85
2022-09-14T06:11:47.463Z,12.65
2022-09-14T06:14:51.201Z,11.00
2022-09-14T06:17:53.467Z,14.13
2022-09-14T06:20:41.121Z,15.45
2022-09-14T06:24:00.755Z,14.43
2022-09-14T06:30:46.984Z,12.10
2022-09-14T06:37:05.582Z,13.85
2022-09-14T06:40:10.218Z,12.37
2022-09-14T06:43:14.006Z,15.13
2022-09-14T06:46:02.205Z,15.33
2022-09-14T06:49:31.446Z,13.35
2022-09-14T06:56:03.855Z,14.50
2022-09-14T06:58:55.260Z,11.80
2022-09-14T07:01:59.082Z,13.75
2022-09-14T07:08:34.176Z,15.77
2022-09-14T07:11:30.315Z,15.57
2022-09-14T07:14:32.363Z,13.40
2022-09-14T07:17:34.112Z,12.30
2022-09-14T07:20:23.398Z,13.98
2022-09-14T07:23:14.020Z,14.07
2022-09-14T07:26:04.448Z,15.60
2022-09-14T07:28:53.279Z,14.70
2022-09-14T07:31:42.333Z,14.93
2022-09-14T07:34:30.771Z,14.95
2022-09-14T07:37:19.883Z,13.80
2022-09-14T07:40:07.757Z,13.43
2022-09-14T07:42:57.716Z,13.55
2022-09-14T07:45:45.549Z,12.82
2022-09-14T07:48:33.411Z,12.68
2022-09-14T07:51:21.141Z,11.43
2022-09-14T07:54:13.033Z,11.48
2022-09-14T07:57:07.816Z,12.25
2022-09-14T07:59:55.671Z,10.30
2022-09-14T08:02:43.579Z,10.45
2022-09-14T08:05:31.084Z,12.43
2022-09-14T08:08:18.771Z,11.30
2022-09-14T08:11:11.606Z,11.07
2022-09-14T08:14:02.084Z,11.48
2022-09-14T08:16:52.118Z,10.90
2022-09-14T08:19:41.571Z,10.02
2022-09-14T08:22:29.524Z,10.25
2022-09-14T08:25:18.391Z,9.13
2022-09-14T08:28:07.670Z,10.23
2022-09-14T08:30:54.944Z,9.20
2022-09-14T08:33:44.160Z,9.45
2022-09-14T08:36:32.977Z,8.57
2022-09-14T08:39:21.175Z,9.43
2022-09-14T08:42:13.051Z,12.02
2022-09-14T08:45:09.692Z,9.75
2022-09-14T08:48:01.835Z,9.75
2022-09-14T08:50:54.194Z,8.10
2022-09-14T08:53:42.452Z,8.68
2022-09-14T08:56:34.010Z,7.20
2022-09-14T08:59:28.291Z,6.88
2022-09-14T09:02:30.271Z,7.82
2022-09-14T09:05:25.276Z,8.88
2022-09-14T09:08:18.484Z,7.82
2022-09-14T09:11:09.182Z,7.57
2022-09-14T09:13:57.224Z,7.97
2022-09-14T09:16:46.190Z,6.07
2022-09-14T09:19:37.585Z,8.25
2022-09-14T09:22:35.491Z,6.50
2022-09-14T09:25:25.462Z,6.15
2022-09-14T09:28:14.025Z,6.00
2022-09-14T09:31:19.487Z,6.20
2022-09-14T09:37:40.562Z,7.28
2022-09-14T09:40:43.526Z,6.15
2022-09-14T09:43:48.981Z,6.43
2022-09-14T09:46:43.396Z,5.13
2022-09-14T09:49:45.056Z,8.02
2022-09-14T09:52:50.435Z,5.50
2022-09-14T09:55:42.746Z,6.55
2022-09-14T09:59:12.336Z,5.10
2022-09-14T10:02:33.637Z,5.38
2022-09-14T10:05:51.639Z,5.10
2022-09-14T10:09:22.539Z,6.13
2022-09-14T10:12:28.179Z,5.35
2022-09-14T10:15:20.320Z,5.07
2022-09-14T10:21:27.411Z,5.63
2022-09-14T10:24:29.371Z,5.57
2022-09-14T10:27:37.125Z,5.78
2022-09-14T10:30:35.982Z,5.25
2022-09-14T10:33:23.793Z,5.03
2022-09-14T10:36:25.629Z,5.32
2022-09-14T10:39:22.999Z,5.22
2022-09-14T10:42:35.620Z,5.43
2022-09-14T10:45:30.103Z,5.53
2022-09-14T10:48:47.111Z,5.05
2022-09-14T10:52:09.275Z,4.53
2022-09-14T10:55:24.065Z,5.82
2022-09-14T10:58:30.567Z,7.53
2022-09-14T11:01:30.572Z,6.25
2022-09-14T11:04:31.776Z,5.93
2022-09-14T11:07:23.235Z,6.18
2022-09-14T11:10:16.832Z,6.45
2022-09-14T11:13:17.478Z,5.18
2022-09-14T11:16:11.620Z,5.22
2022-09-14T11:19:03.367Z,5.70
2022-09-14T11:21:51.577Z,6.00
2022-09-14T11:24:41.318Z,4.57
2022-09-14T11:27:30.845Z,4.65
2022-09-14T11:30:20.480Z,4.03
2022-09-14T11:33:13.024Z,4.60
2022-09-14T11:36:04.525Z,5.78
2022-09-14T11:38:55.322Z,4.05
2022-09-14T11:41:55.426Z,5.88
2022-09-14T11:45:04.932Z,4.65
2022-09-14T11:51:34.139Z,4.70
2022-09-14T11:54:23.940Z,5.60
2022-09-14T11:57:16.731Z,6.88
2022-09-14T12:00:07.619Z,4.18
2022-09-14T12:03:03.147Z,5.82
2022-09-14T12:06:00.235Z,3.00
2022-09-14T12:09:21.309Z,7.63
2022-09-14T12:12:36.671Z,4.25
2022-09-14T12:15:44.101Z,4.65
2022-09-14T12:18:37.701Z,3.72
2022-09-14T12:21:27.766Z,3.60
2022-09-14T12:24:18.823Z,4.55
2022-09-14T12:27:16.424Z,3.30
2022-09-14T12:30:04.866Z,3.45
2022-09-14T12:32:52.342Z,3.50
2022-09-14T12:35:47.400Z,5.72
2022-09-14T12:38:44.362Z,4.40
2022-09-14T12:41:50.694Z,4.97
2022-09-14T12:44:41.304Z,4.50
2022-09-14T12:47:50.303Z,6.22
2022-09-14T12:50:39.736Z,5.10
2022-09-14T12:53:30.638Z,6.32
2022-09-14T12:56:21.590Z,5.13
2022-09-14T12:59:11.539Z,4.80
2022-09-14T13:02:05.182Z,6.20
2022-09-14T13:04:54.306Z,4.18
2022-09-14T13:07:41.949Z,4.15
2022-09-14T13:10:31.594Z,4.72
2022-09-14T13:13:19.671Z,4.45
2022-09-14T13:16:08.412Z,4.53
2022-09-14T13:19:03.227Z,4.25
2022-09-14T13:21:51.632Z,6.35
2022-09-14T13:24:44.603Z,6.70
2022-09-14T13:27:33.798Z,4.22
2022-09-14T13:30:22.434Z,4.88
2022-09-14T13:33:15.964Z,5.97
2022-09-14T13:36:05.369Z,4.47
2022-09-14T13:38:53.657Z,6.32
2022-09-14T13:41:44.327Z,7.30
2022-09-14T13:44:35.327Z,5.60
2022-09-14T13:47:26.385Z,6.70
2022-09-14T13:50:15.151Z,5.68
2022-09-14T13:53:07.170Z,9.10
2022-09-14T13:55:55.235Z,8.55
2022-09-14T13:58:43.635Z,8.25
2022-09-14T14:01:34.181Z,6.70
2022-09-14T14:04:28.949Z,7.25
2022-09-14T14:07:19.445Z,5.70
2022-09-14T14:10:09.086Z,6.53
2022-09-14T14:13:06.862Z,6.57
2022-09-14T14:16:04.875Z,5.88
2022-09-14T14:19:24.405Z,6.15
2022-09-14T14:22:39.139Z,4.68
2022-09-14T14:25:46.265Z,4.70
2022-09-14T14:28:44.341Z,6.32
2022-09-14T14:35:36.581Z,7.78
2022-09-14T14:38:40.155Z,6.25
2022-09-14T14:41:45.941Z,6.38
2022-09-14T14:44:36.335Z,6.43
2022-09-14T14:47:30.821Z,8.90
2022-09-14T14:50:21.082Z,7.65
2022-09-14T14:56:56.450Z,9.63
2022-09-14T14:59:51.627Z,8.55
2022-09-14T15:03:02.558Z,7.60
2022-09-14T15:06:23.621Z,8.95
2022-09-14T15:09:35.770Z,8.43
2022-09-14T15:12:26.632Z,9.13
2022-09-14T15:15:26.572Z,10.02
2022-09-14T15:18:14.036Z,13.55
2022-09-14T15:21:13.461Z,10.73
2022-09-14T15:24:10.900Z,12.27
2022-09-14T15:27:07.730Z,11.02
2022-09-14T15:30:04.634Z,13.50
2022-09-14T15:33:11.704Z,15.73
2022-09-14T15:36:19.337Z,15.50
2022-09-14T15:39:20.610Z,15.18
2022-09-14T15:42:38.366Z,16.55
2022-09-14T15:46:05.479Z,15.65
2022-09-14T15:49:22.466Z,16.55
2022-09-14T15:52:14.769Z,16.35
2022-09-14T15:55:10.954Z,15.68
2022-09-14T15:58:05.805Z,20.67
2022-09-14T16:01:02.117Z,18.65
2022-09-14T16:04:11.723Z,17.33
2022-09-14T16:10:38.708Z,19.70
2022-09-14T16:13:34.193Z,15.10
2022-09-14T16:17:02.723Z,18.05
2022-09-14T16:27:46.635Z,15.98
2022-09-14T16:30:44.452Z,17.08
2022-09-14T16:33:37.477Z,18.48
2022-09-14T16:36:31.525Z,15.93
2022-09-14T16:39:25.684Z,13.50
2022-09-14T16:50:11.084Z,14.05
2022-09-14T16:56:38.974Z,14.80
2022-09-14T16:59:26.953Z,14.13
2022-09-14T17:02:14.688Z,13.80
2022-09-14T17:05:06.929Z,13.13
2022-09-14T17:07:55.683Z,16.48
2022-09-14T17:10:52.474Z,13.77
2022-09-14T17:13:40.834Z,13.43
2022-09-14T17:16:31.347Z,14.63
2022-09-14T17:19:21.392Z,16.92
2022-09-14T17:22:16.816Z,16.75
2022-09-14T17:25:08.461Z,15.63
2022-09-14T17:28:23.359Z,13.63
2022-09-14T17:31:13.818Z,15.23
2022-09-14T17:34:17.467Z,17.58
2022-09-14T17:37:05.526Z,12.68
2022-09-14T17:39:58.077Z,14.38
2022-09-14T17:42:50.397Z,15.10
2022-09-14T17:45:41.022Z,14.07
2022-09-14T17:59:16.327Z,17.45
2022-09-14T18:02:04.001Z,19.17
2022-09-14T18:04:53.843Z,19.33
2022-09-14T18:07:50.471Z,18.45
2022-09-14T18:10:42.512Z,18.55
2022-09-14T18:13:46.567Z,17.90
2022-09-14T18:16:34.958Z,20.38
2022-09-14T18:19:22.971Z,19.35
2022-09-14T18:22:46.974Z,21.00
2022-09-14T18:25:44.899Z,22.58
2022-09-14T18:29:12.356Z,28.50
2022-09-14T18:32:02.818Z,28.05
2022-09-14T18:34:54.405Z,29.05
2022-09-14T18:37:42.883Z,31.45
2022-09-14T18:40:34.871Z,27.65
2022-09-14T18:43:27.018Z,26.02
2022-09-14T18:46:28.006Z,34.05
2022-09-14T18:49:21.236Z,29.02
2022-09-14T18:52:30.074Z,27.42
2022-09-14T18:55:20.655Z,27.08
2022-09-14T18:58:27.604Z,27.08
2022-09-14T19:05:11.971Z,28.03
2022-09-14T19:08:06.641Z,26.15
2022-09-14T19:11:13.533Z,26.00
2022-09-14T19:14:13.707Z,26.58
2022-09-14T19:17:32.771Z,24.30
2022-09-14T19:21:02.114Z,25.42
2022-09-14T19:23:55.706Z,27.23
2022-09-14T19:27:03.559Z,27.75
2022-09-14T19:29:53.460Z,30.48
2022-09-14T19:32:41.312Z,30.45
2022-09-14T19:35:41.268Z,33.90
2022-09-14T19:38:30.763Z,31.55
2022-09-14T19:41:24.651Z,31.60
2022-09-14T19:44:12.493Z,33.00
2022-09-14T19:47:00.330Z,33.85
2022-09-14T19:49:51.028Z,31.13
2022-09-14T19:52:40.125Z,31.67
2022-09-14T19:55:27.982Z,33.08
2022-09-14T19:58:19.143Z,35.70
2022-09-14T20:01:07.199Z,34.92
2022-09-14T20:03:54.960Z,38.30
2022-09-14T20:06:44.999Z,40.25
2022-09-14T20:09:33.490Z,40.08
2022-09-14T20:12:20.793Z,36.60
2022-09-14T20:15:11.334Z,39.00
2022-09-14T20:17:58.932Z,41.70
2022-09-14T20:20:46.838Z,39.15
2022-09-14T20:23:34.723Z,34.60
2022-09-14T20:26:24.544Z,34.33
2022-09-14T20:29:12.515Z,35.75
2022-09-14T20:32:00.443Z,38.00
2022-09-14T20:34:48.629Z,42.90
2022-09-14T20:37:36.016Z,40.42
2022-09-14T20:40:23.636Z,42.10
2022-09-14T20:43:15.959Z,38.58
2022-09-14T20:46:04.313Z,36.58
2022-09-14T20:48:51.860Z,39.40
2022-09-14T20:51:40.019Z,41.13
2022-09-14T20:54:27.282Z,39.53
2022-09-14T20:57:14.775Z,37.80
2022-09-14T21:00:04.055Z,42.03
2022-09-14T21:02:56.862Z,38.33
2022-09-14T21:05:44.915Z,39.90
2022-09-14T21:08:33.411Z,40.05
2022-09-14T21:11:22.459Z,33.33
2022-09-14T21:14:10.823Z,34.28
2022-09-14T21:17:03.305Z,33.97
2022-09-14T21:19:51.049Z,30.20
2022-09-14T21:22:39.444Z,32.42
2022-09-14T21:25:26.936Z,31.80
2022-09-14T21:28:14.530Z,26.55
2022-09-14T21:31:06.698Z,29.80
2022-09-14T21:33:58.223Z,31.33
2022-09-14T21:36:47.907Z,30.95
2022-09-14T21:39:38.166Z,27.33
2022-09-14T21:42:25.637Z,30.90
2022-09-14T21:45:13.889Z,34.33
2022-09-14T21:48:03.404Z,35.47
2022-09-14T21:51:01.694Z,31.45
2022-09-14T21:57:37.335Z,30.95
2022-09-14T22:00:40.249Z,31.83
2022-09-14T22:03:29.637Z,29.20
2022-09-14T22:06:20.095Z,29.98
2022-09-14T22:09:08.004Z,32.75
2022-09-14T22:11:59.791Z,30.52
2022-09-14T22:14:48.543Z,30.90
2022-09-14T22:17:38.468Z,32.80
2022-09-14T22:20:27.621Z,35.65
2022-09-14T22:23:16.319Z,39.75
2022-09-14T22:26:07.735Z,44.70
2022-09-14T22:28:55.590Z,41.80
2022-09-14T22:31:45.877Z,51.85
2022-09-14T22:34:35.895Z,45.92
2022-09-14T22:37:26.878Z,40.38
2022-09-14T22:40:17.408Z,34.88
2022-09-14T22:43:07.887Z,38.20
2022-09-14T22:45:55.631Z,40.97
2022-09-14T22:48:50.609Z,45.15
2022-09-14T22:51:38.710Z,44.03
2022-09-14T22:54:42.547Z,47.22
2022-09-14T22:57:40.113Z,49.47
2022-09-14T23:00:29.011Z,39.40
2022-09-14T23:03:18.019Z,47.42
2022-09-14T23:06:06.103Z,45.20
2022-09-14T23:08:53.167Z,48.33
2022-09-14T23:11:44.848Z,47.70
2022-09-14T23:14:38.271Z,48.22
2022-09-14T23:17:26.421Z,46.53
2022-09-14T23:20:13.735Z,49.60
2022-09-14T23:23:01.196Z,55.05
2022-09-14T23:25:48.653Z,52.85
2022-09-14T23:28:37.720Z,51.10
2022-09-14T23:31:26.949Z,48.10
2022-09-14T23:34:14.979Z,48.30
2022-09-14T23:37:02.372Z,48.78
2022-09-14T23:39:50.161Z,45.90
2022-09-14T23:42:37.890Z,46.60
2022-09-14T23:45:25.272Z,49.60
2022-09-14T23:48:15.099Z,50.35
2022-09-14T23:51:04.032Z,45.85
2022-09-14T23:53:51.591Z,49.70
2022-09-14T23:56:40.604Z,49.72
2022-09-14T23:59:28.028Z,58.38
